Time;durP1;ratioP1;P1;durP2;ratioP2;P2;SDS_P1;SDS_P2;PMS_P1;PMS_P2;Temp;Humidity;BMP_temperature;BMP_pressure;BME280_temperature;BME280_humidity;BME280_pressure;Samples;Min_cycle;Max_cycle;Signal;HPM_P1;HPM_P2
2023/07/19 00:01:53;;;;;;;5.63;3.07;;;;;;;18.22;78.94;100191.16;4890039;29;20220;-72
2023/07/19 00:04:19;;;;;;;4.30;3.00;;;;;;;18.19;78.18;100195.72;4882344;29;20665;-72
2023/07/19 00:06:46;;;;;;;5.30;2.80;;;;;;;18.32;76.42;100194.53;4891443;29;20199;-72
2023/07/19 00:09:12;;;;;;;4.67;2.90;;;;;;;18.20;79.22;100201.03;4899455;29;20262;-72
2023/07/19 00:11:39;;;;;;;4.97;2.73;;;;;;;18.08;79.81;100190.56;4891686;29;20212;-72
2023/07/19 00:14:05;;;;;;;4.17;2.83;;;;;;;17.96;79.89;100199.72;4886375;29;20755;-72
2023/07/19 00:16:33;;;;;;;5.30;2.97;;;;;;;17.83;81.67;100201.75;4875618;29;20208;-72
2023/07/19 00:19:01;;;;;;;7.57;4.10;;;;;;;17.75;83.57;100198.34;4878164;29;20786;-72
2023/07/19 00:21:46;;;;;;;4.90;3.17;;;;;;;17.71;88.95;100206.47;4888277;29;20208;-71
2023/07/19 00:24:12;;;;;;;6.07;3.13;;;;;;;17.71;91.62;100207.38;4893250;29;20303;-71
2023/07/19 00:26:39;;;;;;;5.60;3.00;;;;;;;17.89;93.47;100200.75;4893657;29;20683;-72
2023/07/19 00:29:05;;;;;;;5.97;3.13;;;;;;;17.85;92.79;100199.94;4896025;29;20200;-72
2023/07/19 00:31:32;;;;;;;5.63;3.03;;;;;;;17.99;88.38;100201.47;4896337;29;20976;-72
2023/07/19 00:33:58;;;;;;;6.20;2.97;;;;;;;17.92;88.35;100195.34;4894041;29;20204;-72
2023/07/19 00:36:24;;;;;;;5.87;2.70;;;;;;;17.83;88.42;100193.72;4894954;29;20255;-71
2023/07/19 00:38:51;;;;;;;6.40;2.97;;;;;;;17.93;84.53;100193.53;4898649;29;20224;-72
2023/07/19 00:41:18;;;;;;;5.70;3.07;;;;;;;17.86;84.28;100192.78;4903011;29;20215;-72
2023/07/19 00:43:47;;;;;;;5.83;3.03;;;;;;;17.90;82.78;100190.94;4898084;29;20200;-72
2023/07/19 00:46:13;;;;;;;4.30;3.10;;;;;;;17.81;83.77;100195.56;4892320;29;20668;-72
2023/07/19 00:48:41;;;;;;;4.50;2.73;;;;;;;17.70;85.78;100185.97;4899014;29;20325;-72
2023/07/19 00:51:09;;;;;;;5.20;2.83;;;;;;;17.84;84.12;100192.81;4902489;29;20219;-72
2023/07/19 00:53:38;;;;;;;5.50;3.00;;;;;;;17.84;83.68;100189.25;4898263;29;20208;-72
2023/07/19 00:56:07;;;;;;;6.53;3.07;;;;;;;17.84;84.34;100186.56;4896484;29;20728;-72
2023/07/19 00:58:35;;;;;;;4.40;2.80;;;;;;;17.77;82.86;100182.25;4899009;29;20290;-72
2023/07/19 01:01:02;;;;;;;4.27;2.97;;;;;;;17.71;82.74;100191.28;4894088;29;20219;-72
2023/07/19 01:03:28;;;;;;;7.23;2.97;;;;;;;17.63;82.07;100190.53;4902236;29;20200;-72
2023/07/19 01:05:59;;;;;;;4.27;2.77;;;;;;;17.53;83.45;100192.47;4894586;29;20688;-72
2023/07/19 01:08:26;;;;;;;6.27;2.80;;;;;;;17.48;81.81;100183.63;4884412;29;20303;-72
2023/07/19 01:10:53;;;;;;;6.57;2.80;;;;;;;17.42;81.17;100182.88;4902893;29;20231;-72
2023/07/19 01:13:20;;;;;;;4.80;2.30;;;;;;;17.42;77.77;100175.72;4893904;29;20226;-71
2023/07/19 01:15:46;;;;;;;3.93;2.50;;;;;;;17.46;76.82;100182.78;4893601;29;20214;-72
2023/07/19 01:18:13;;;;;;;4.27;2.43;;;;;;;17.45;76.87;100190.84;4898098;29;20209;-72
2023/07/19 01:20:39;;;;;;;4.07;2.57;;;;;;;17.46;76.67;100182.78;4901354;29;20574;-71
2023/07/19 01:23:06;;;;;;;4.67;2.37;;;;;;;17.33;78.44;100177.69;4899977;29;20340;-72
2023/07/19 01:25:33;;;;;;;7.23;2.57;;;;;;;17.22;81.10;100178.75;4895218;29;20208;-71
2023/07/19 01:28:00;;;;;;;6.10;4.00;;;;;;;17.19;83.14;100183.25;4896516;29;20547;-72
2023/07/19 01:30:26;;;;;;;6.77;3.13;;;;;;;17.23;81.05;100182.31;4894664;29;20315;-72
2023/07/19 01:32:53;;;;;;;5.77;2.80;;;;;;;17.17;81.23;100179.72;4895255;29;20213;-72
2023/07/19 01:35:20;;;;;;;6.83;2.93;;;;;;;17.13;81.06;100173.53;4895293;29;20292;-72
2023/07/19 01:37:46;;;;;;;4.77;2.60;;;;;;;17.04;81.91;100186.19;4896177;29;20227;-72
2023/07/19 01:40:13;;;;;;;4.20;2.63;;;;;;;16.95;82.19;100181.88;4897940;29;20236;-72
2023/07/19 01:42:40;;;;;;;3.77;2.60;;;;;;;16.94;82.74;100180.13;4897073;29;20200;-71
2023/07/19 01:45:07;;;;;;;4.90;2.97;;;;;;;16.80;84.38;100174.97;4895063;29;20685;-72
2023/07/19 01:47:34;;;;;;;5.70;2.73;;;;;;;16.78;85.61;100176.78;4904246;29;20211;-72
2023/07/19 01:50:01;;;;;;;5.77;2.70;;;;;;;16.94;86.10;100177.44;4898390;29;20216;-72
2023/07/19 01:52:27;;;;;;;5.63;3.07;;;;;;;17.03;84.20;100176.41;4896732;29;20204;-72
2023/07/19 01:54:53;;;;;;;5.50;2.90;;;;;;;17.01;84.77;100170.19;4889042;29;20201;-72
2023/07/19 01:57:21;;;;;;;7.13;3.17;;;;;;;16.91;85.37;100165.00;4886459;29;20589;-72
2023/07/19 01:59:48;;;;;;;4.13;2.57;;;;;;;16.76;86.89;100170.56;4902377;29;20259;-72
2023/07/19 02:02:14;;;;;;;7.67;2.87;;;;;;;16.70;88.34;100172.44;4899759;29;20315;-72
2023/07/19 02:04:41;;;;;;;3.90;2.80;;;;;;;16.60;91.29;100163.66;4894402;29;20203;-72
2023/07/19 02:07:07;;;;;;;6.17;3.00;;;;;;;16.52;94.41;100171.81;4898165;29;20248;-72
2023/07/19 02:09:34;;;;;;;7.13;3.30;;;;;;;16.42;95.07;100167.50;4890592;29;20223;-72
2023/07/19 02:12:00;;;;;;;4.20;2.93;;;;;;;16.44;96.29;100165.69;4898276;29;20215;-72
2023/07/19 02:14:27;;;;;;;6.37;3.07;;;;;;;16.43;96.49;100160.34;4879499;29;20793;-71
2023/07/19 02:16:53;;;;;;;4.03;2.77;;;;;;;16.40;97.03;100152.34;4895949;29;20243;-72
2023/07/19 02:19:19;;;;;;;4.07;3.00;;;;;;;16.41;95.67;100151.44;4897789;29;20244;-72
2023/07/19 02:21:46;;;;;;;6.10;3.00;;;;;;;16.31;96.12;100156.03;4896776;29;20208;-72
2023/07/19 02:24:12;;;;;;;6.80;2.90;;;;;;;16.24;97.72;100165.06;4894922;29;20204;-71
2023/07/19 02:26:39;;;;;;;5.90;3.00;;;;;;;16.20;97.45;100155.31;4898887;29;20214;-72
2023/07/19 02:29:05;;;;;;;5.20;3.10;;;;;;;16.18;96.87;100159.78;4892755;29;20211;-72
2023/07/19 02:31:31;;;;;;;5.73;2.70;;;;;;;16.16;97.88;100161.59;4898301;29;20295;-72
2023/07/19 02:33:58;;;;;;;5.47;2.80;;;;;;;16.00;98.30;100155.56;4889050;29;20291;-72
2023/07/19 02:36:24;;;;;;;3.53;2.80;;;;;;;15.86;100.00;100161.06;4888232;29;20669;-72
2023/07/19 02:38:51;;;;;;;3.87;2.97;;;;;;;15.77;100.00;100161.19;4889978;29;20681;-72
2023/07/19 02:41:17;;;;;;;4.20;2.70;;;;;;;15.69;100.00;100154.16;4898508;29;20226;-72
2023/07/19 02:43:44;;;;;;;4.57;3.37;;;;;;;15.62;100.00;100142.69;4890776;29;20208;-71
2023/07/19 02:46:11;;;;;;;4.67;2.50;;;;;;;15.61;100.00;100147.13;4913637;29;20204;-72
2023/07/19 02:48:37;;;;;;;5.07;2.90;;;;;;;15.65;100.00;100154.22;4896023;29;20543;-72
2023/07/19 02:51:04;;;;;;;5.40;2.93;;;;;;;15.57;100.00;100153.34;4892661;29;20228;-72
2023/07/19 02:53:30;;;;;;;4.90;2.90;;;;;;;15.55;100.00;100160.50;4897856;29;20223;-72
2023/07/19 02:55:56;;;;;;;7.47;2.97;;;;;;;15.50;100.00;100158.78;4895788;29;20219;-72
2023/07/19 02:58:24;;;;;;;7.13;3.07;;;;;;;15.52;100.00;100157.84;4895278;29;20299;-72
2023/07/19 03:00:53;;;;;;;5.97;3.80;;;;;;;15.56;100.00;100156.91;4891844;29;20315;-71
2023/07/19 03:03:19;;;;;;;3.90;2.97;;;;;;;15.64;100.00;100160.44;4894872;29;20817;-72
2023/07/19 03:05:46;;;;;;;4.97;3.00;;;;;;;15.69;100.00;100164.84;4904589;29;20224;-72
2023/07/19 03:08:12;;;;;;;7.03;3.00;;;;;;;15.66;100.00;100163.97;4896365;29;20731;-72
2023/07/19 03:10:39;;;;;;;4.10;2.80;;;;;;;15.73;100.00;100174.59;4887166;29;20267;-72
2023/07/19 03:13:06;;;;;;;4.93;2.90;;;;;;;15.66;100.00;100174.66;4892187;29;20290;-72
2023/07/19 03:15:33;;;;;;;5.13;2.90;;;;;;;15.68;100.00;100174.66;4897201;29;20224;-71
2023/07/19 03:18:01;;;;;;;4.43;2.70;;;;;;;15.69;100.00;100183.53;4896891;29;20217;-71
2023/07/19 03:20:28;;;;;;;3.77;2.73;;;;;;;15.61;100.00;100184.50;4891318;29;20247;-71
2023/07/19 03:22:56;;;;;;;4.20;2.70;;;;;;;15.56;100.00;100188.06;4887153;29;20209;-72
2023/07/19 03:25:23;;;;;;;5.27;3.10;;;;;;;15.45;100.00;100185.50;4890543;29;20234;-71
2023/07/19 03:27:50;;;;;;;5.03;3.00;;;;;;;15.35;100.00;100186.50;4893618;29;20204;-71
2023/07/19 03:30:17;;;;;;;5.43;2.97;;;;;;;15.28;100.00;100198.13;4891656;29;20251;-72
2023/07/19 03:32:44;;;;;;;6.67;3.00;;;;;;;15.31;100.00;100182.97;4886739;29;20218;-72
2023/07/19 03:35:10;;;;;;;4.47;2.90;;;;;;;15.32;100.00;100194.53;4888890;29;20740;-71
2023/07/19 03:37:36;;;;;;;4.70;2.90;;;;;;;15.33;100.00;100194.53;4892290;29;20201;-72
2023/07/19 03:40:04;;;;;;;4.33;3.10;;;;;;;15.40;100.00;100194.47;4893338;29;20223;-72
2023/07/19 03:42:31;;;;;;;5.83;3.20;;;;;;;15.40;100.00;100197.13;4895284;29;20291;-72
2023/07/19 03:44:57;;;;;;;5.50;3.63;;;;;;;15.46;100.00;100200.63;4893399;29;20579;-72
2023/07/19 03:47:25;;;;;;;4.40;2.60;;;;;;;15.48;100.00;100197.94;4894634;29;20635;-72
2023/07/19 03:49:51;;;;;;;4.20;2.90;;;;;;;15.35;100.00;100206.06;4896890;29;20278;-72
2023/07/19 03:52:18;;;;;;;6.80;3.20;;;;;;;15.46;100.00;100203.28;4894650;29;20204;-72
2023/07/19 03:54:44;;;;;;;5.40;3.00;;;;;;;15.43;100.00;100199.78;4897691;29;20560;-72
2023/07/19 03:57:10;;;;;;;5.03;3.00;;;;;;;15.53;100.00;100210.34;4894203;29;20644;-72
2023/07/19 03:59:37;;;;;;;5.80;3.20;;;;;;;15.49;100.00;100207.72;4898472;29;20232;-72
2023/07/19 04:02:03;;;;;;;5.47;3.20;;;;;;;15.44;100.00;100206.88;4890068;29;20200;-73
2023/07/19 04:04:30;;;;;;;5.37;3.23;;;;;;;15.46;100.00;100207.75;4891754;29;20760;-73
2023/07/19 04:06:56;;;;;;;5.10;3.63;;;;;;;15.56;100.00;100209.41;4890128;29;20204;-72
2023/07/19 04:09:23;;;;;;;5.27;3.43;;;;;;;15.49;100.00;100205.94;4890444;29;20224;-72
2023/07/19 04:11:49;;;;;;;6.13;3.33;;;;;;;15.45;100.00;100213.97;4886898;29;21975;-72
2023/07/19 04:14:15;;;;;;;5.37;3.27;;;;;;;15.44;100.00;100218.44;4899574;29;20302;-72
2023/07/19 04:16:42;;;;;;;5.70;3.10;;;;;;;15.52;100.00;100205.91;4894099;29;20200;-72
2023/07/19 04:19:09;;;;;;;6.17;3.60;;;;;;;15.56;100.00;100217.44;4895550;29;20598;-72
2023/07/19 04:21:35;;;;;;;7.93;3.70;;;;;;;15.56;100.00;100202.28;4894008;29;20258;-72
2023/07/19 04:24:02;;;;;;;4.77;3.27;;;;;;;15.67;100.00;100215.59;4892981;29;20673;-72
2023/07/19 04:26:28;;;;;;;5.20;3.40;;;;;;;15.69;100.00;100213.78;4889559;29;20207;-72
2023/07/19 04:28:57;;;;;;;6.20;3.00;;;;;;;15.71;100.00;100217.31;4891491;29;20204;-72
2023/07/19 04:31:24;;;;;;;4.70;3.20;;;;;;;15.77;100.00;100213.72;4892750;29;20924;-73
2023/07/19 04:33:50;;;;;;;7.63;3.37;;;;;;;15.84;100.00;100210.94;4886001;29;20223;-75
2023/07/19 04:36:18;;;;;;;7.67;3.23;;;;;;;15.95;100.00;100217.03;4893624;29;20524;-74
2023/07/19 04:38:45;;;;;;;5.70;3.47;;;;;;;16.01;100.00;100210.78;4882396;29;20205;-76
2023/07/19 04:41:11;;;;;;;9.07;3.40;;;;;;;16.11;100.00;100206.19;4880713;29;20229;-76
2023/07/19 04:43:37;;;;;;;7.57;3.57;;;;;;;16.16;100.00;100197.22;4891893;29;20210;-74
2023/07/19 04:46:04;;;;;;;6.53;3.80;;;;;;;16.27;100.00;100195.28;4890420;29;20200;-74
2023/07/19 04:48:31;;;;;;;7.00;3.77;;;;;;;16.38;100.00;100202.28;4888000;29;20211;-74
2023/07/19 04:50:58;;;;;;;8.40;3.90;;;;;;;16.53;100.00;100212.78;4892131;29;20239;-76
2023/07/19 04:53:25;;;;;;;6.50;3.90;;;;;;;16.64;100.00;100196.59;4891635;29;20204;-74
2023/07/19 04:55:52;;;;;;;11.23;3.90;;;;;;;16.78;100.00;100207.97;4892037;29;20823;-74
2023/07/19 04:58:19;;;;;;;4.90;3.67;;;;;;;16.88;100.00;100205.16;4890888;29;20235;-74
2023/07/19 05:00:46;;;;;;;5.20;4.00;;;;;;;16.99;100.00;100204.13;4892041;29;20327;-77
2023/07/19 05:03:12;;;;;;;6.17;3.60;;;;;;;17.09;100.00;100203.94;4904636;29;20208;-77
2023/07/19 05:05:39;;;;;;;7.70;4.37;;;;;;;17.20;100.00;100204.63;4907346;29;20644;-74
2023/07/19 05:08:06;;;;;;;4.63;3.97;;;;;;;17.30;100.00;100208.06;4904904;29;20237;-74
2023/07/19 05:10:36;;;;;;;4.93;3.73;;;;;;;17.48;100.00;100213.09;4890826;29;20224;-74
2023/07/19 05:13:04;;;;;;;6.67;3.90;;;;;;;17.66;100.00;100219.94;4871169;29;20220;-74
2023/07/19 05:15:31;;;;;;;5.13;3.70;;;;;;;17.81;98.06;100219.66;4887824;29;20212;-69
2023/07/19 05:18:00;;;;;;;6.17;3.53;;;;;;;18.07;92.15;100239.72;4875928;29;20263;-69
2023/07/19 05:20:28;;;;;;;6.17;3.63;;;;;;;18.17;92.44;100235.94;4887293;29;20239;-68
2023/07/19 05:22:58;;;;;;;6.37;3.20;;;;;;;18.30;91.89;100231.22;4892399;29;20700;-71
2023/07/19 05:25:25;;;;;;;6.70;3.80;;;;;;;18.45;91.36;100234.47;4891644;29;20207;-71
2023/07/19 05:27:51;;;;;;;7.07;3.60;;;;;;;18.69;88.65;100237.56;4890423;29;20196;-72
2023/07/19 05:30:18;;;;;;;4.90;3.30;;;;;;;18.76;87.51;100228.44;4889822;29;20650;-71
2023/07/19 05:32:44;;;;;;;5.60;3.60;;;;;;;18.85;87.02;100227.38;4896409;29;20226;-71
2023/07/19 05:35:11;;;;;;;6.87;3.30;;;;;;;18.96;83.45;100226.22;4890571;29;20558;-72
2023/07/19 05:37:39;;;;;;;7.10;3.07;;;;;;;19.05;83.29;100222.41;4887758;29;20309;-71
2023/07/19 05:40:07;;;;;;;5.37;3.20;;;;;;;19.14;82.15;100221.31;4890144;29;20220;-72
2023/07/19 05:42:34;;;;;;;6.53;3.27;;;;;;;19.25;80.70;100230.00;4891150;29;20219;-71
2023/07/19 05:45:00;;;;;;;5.90;3.60;;;;;;;19.40;79.88;100227.81;4887775;29;20223;-71
2023/07/19 05:47:27;;;;;;;6.03;3.00;;;;;;;19.50;79.49;100225.75;4884573;29;20216;-72
2023/07/19 05:49:56;;;;;;;7.17;3.43;;;;;;;19.55;78.63;100228.34;4883253;29;20225;-72
2023/07/19 05:52:22;;;;;;;6.10;3.47;;;;;;;19.60;78.18;100235.38;4887632;29;20211;-72
2023/07/19 05:54:49;;;;;;;5.63;3.10;;;;;;;19.62;77.85;100230.00;4887661;29;20209;-71
2023/07/19 05:57:15;;;;;;;4.40;3.07;;;;;;;19.68;76.36;100225.34;4880203;29;20292;-71
2023/07/19 05:59:42;;;;;;;4.07;2.63;;;;;;;20.07;75.61;100235.03;4888818;29;20517;-71
2023/07/19 06:02:08;;;;;;;4.93;3.07;;;;;;;20.31;73.87;100242.41;4880195;29;20238;-72
2023/07/19 06:04:35;;;;;;;4.73;2.73;;;;;;;20.26;73.17;100239.84;4881675;29;20291;-70
2023/07/19 06:07:02;;;;;;;4.17;2.87;;;;;;;20.35;72.69;100233.31;4887170;29;20364;-70
2023/07/19 06:09:30;;;;;;;4.77;3.20;;;;;;;20.34;71.40;100237.81;4877880;29;20326;-71
2023/07/19 06:11:57;;;;;;;5.57;3.03;;;;;;;20.42;72.51;100234.06;4902267;29;20210;-71
2023/07/19 06:14:24;;;;;;;4.83;3.37;;;;;;;20.42;71.07;100234.97;4903217;29;20209;-70
2023/07/19 06:16:50;;;;;;;6.20;3.23;;;;;;;20.36;72.22;100229.69;4897788;29;20214;-70
2023/07/19 06:19:18;;;;;;;9.60;3.50;;;;;;;20.47;71.63;100233.00;4906383;29;20234;-68
2023/07/19 06:21:45;;;;;;;3.67;2.87;;;;;;;20.57;71.40;100226.41;4897692;29;20307;-70
2023/07/19 06:24:12;;;;;;;5.83;3.37;;;;;;;20.73;70.26;100226.81;4903875;29;20200;-70
2023/07/19 06:26:38;;;;;;;7.73;3.30;;;;;;;20.84;68.72;100230.09;4900549;29;20204;-73
2023/07/19 06:29:04;;;;;;;4.43;3.40;;;;;;;21.04;68.24;100226.75;4895856;29;20219;-71
2023/07/19 06:31:31;;;;;;;7.93;3.58;;;;;;;21.08;68.13;100239.19;4905329;29;20200;-70
2023/07/19 06:33:57;;;;;;;9.63;3.47;;;;;;;21.05;68.48;100233.00;4899200;29;20586;-70
2023/07/19 06:36:24;;;;;;;5.82;3.38;;;;;;;21.01;68.56;100231.34;4902269;29;20200;-71
2023/07/19 06:38:50;;;;;;;9.05;3.55;;;;;;;21.08;69.45;100241.00;4893521;29;20650;-71
2023/07/19 06:41:17;;;;;;;5.78;3.22;;;;;;;21.14;70.02;100238.97;4898460;29;20712;-72
2023/07/19 06:43:43;;;;;;;6.13;3.15;;;;;;;21.23;70.16;100240.56;4891389;29;20208;-71
2023/07/19 06:46:10;;;;;;;7.07;4.20;;;;;;;21.11;69.09;100248.97;4901748;29;20199;-71
2023/07/19 06:48:36;;;;;;;7.68;4.43;;;;;;;21.16;70.42;100249.69;4891880;29;20207;-70
2023/07/19 06:51:03;;;;;;;6.43;3.78;;;;;;;21.24;71.00;100250.41;4895288;29;20727;-70
2023/07/19 06:53:29;;;;;;;5.45;4.10;;;;;;;21.38;70.50;100244.53;4891941;29;20215;-70
2023/07/19 06:55:59;;;;;;;7.30;4.38;;;;;;;21.61;70.78;100249.13;4884180;29;20201;-71
2023/07/19 06:58:26;;;;;;;6.68;3.60;;;;;;;21.82;69.45;100243.03;4886638;29;20244;-70
2023/07/19 07:00:56;;;;;;;6.95;3.67;;;;;;;22.07;66.37;100241.25;4884040;29;20642;-71
2023/07/19 07:03:23;;;;;;;7.13;3.80;;;;;;;22.33;66.05;100245.69;4885498;29;20210;-70
2023/07/19 07:05:50;;;;;;;8.07;3.58;;;;;;;22.62;62.87;100249.13;4890614;29;20210;-70
2023/07/19 07:08:16;;;;;;;6.00;3.17;;;;;;;23.60;61.63;100249.69;4908522;29;20223;-70
2023/07/19 07:10:43;;;;;;;6.88;3.20;;;;;;;25.37;54.08;100241.56;4885953;29;20666;-70
2023/07/19 07:13:10;;;;;;;6.32;3.13;;;;;;;27.18;47.93;100244.56;4895364;29;20212;-70
2023/07/19 07:15:37;;;;;;;5.78;2.90;;;;;;;28.82;43.97;100243.69;4896118;29;20266;-70
2023/07/19 07:18:03;;;;;;;6.10;3.00;;;;;;;29.28;41.56;100244.34;4891025;29;20226;-70
2023/07/19 07:20:30;;;;;;;7.57;3.50;;;;;;;30.88;38.54;100249.59;4887597;29;20223;-70
2023/07/19 07:22:56;;;;;;;10.93;3.88;;;;;;;31.00;38.14;100250.53;4894471;29;20907;-70
2023/07/19 07:25:23;;;;;;;5.65;3.00;;;;;;;30.48;38.45;100259.78;4878767;29;20295;-70
2023/07/19 07:27:49;;;;;;;7.63;3.08;;;;;;;30.93;37.80;100260.19;4872724;29;20271;-70
2023/07/19 07:30:15;;;;;;;5.53;2.97;;;;;;;30.41;37.14;100258.44;4889899;29;20237;-70
2023/07/19 07:32:44;;;;;;;6.65;2.80;;;;;;;31.13;36.46;100256.84;4890256;29;20583;-70
2023/07/19 07:35:10;;;;;;;7.18;3.08;;;;;;;32.18;34.12;100253.47;4892645;29;20209;-71
2023/07/19 07:37:36;;;;;;;6.30;2.80;;;;;;;32.47;33.11;100248.44;4893314;29;20205;-70
2023/07/19 07:40:04;;;;;;;4.25;2.90;;;;;;;32.41;33.48;100247.03;4877248;29;20306;-71
2023/07/19 07:42:31;;;;;;;5.22;2.83;;;;;;;32.25;33.55;100246.53;4895421;29;20231;-72
2023/07/19 07:44:57;;;;;;;7.47;3.08;;;;;;;31.42;34.90;100241.03;4896155;29;20436;-73
2023/07/19 07:47:25;;;;;;;3.95;3.03;;;;;;;31.59;35.10;100224.19;4890333;29;20291;-70
2023/07/19 07:49:52;;;;;;;7.75;3.00;;;;;;;31.39;35.13;100222.09;4897440;29;20216;-70
2023/07/19 07:52:18;;;;;;;9.35;3.35;;;;;;;30.76;36.49;100229.47;4891003;29;20275;-70
2023/07/19 07:54:45;;;;;;;4.03;2.70;;;;;;;31.36;35.73;100219.59;4894892;29;20211;-70
2023/07/19 07:57:11;;;;;;;6.68;2.67;;;;;;;31.66;34.49;100205.44;4894307;29;20275;-70
2023/07/19 07:59:37;;;;;;;6.78;3.00;;;;;;;32.35;33.41;100203.66;4887180;29;20230;-74
2023/07/19 08:02:04;;;;;;;6.90;3.17;;;;;;;32.76;32.58;100194.81;4871111;29;20519;-71
2023/07/19 08:04:32;;;;;;;7.00;2.95;;;;;;;31.45;33.99;100192.41;4879196;29;20205;-71
2023/07/19 08:06:59;;;;;;;8.05;3.20;;;;;;;31.18;34.61;100189.88;4887071;29;20279;-71
2023/07/19 08:09:25;;;;;;;4.78;3.15;;;;;;;31.37;33.97;100188.50;4890111;29;20669;-70
2023/07/19 08:11:51;;;;;;;6.90;2.90;;;;;;;31.51;33.99;100192.91;4885768;29;21298;-71
2023/07/19 08:14:19;;;;;;;6.15;2.83;;;;;;;31.57;33.84;100189.69;4884922;29;20215;-71
2023/07/19 08:16:52;;;;;;;5.97;2.95;;;;;;;31.56;33.79;100177.00;4890541;29;20584;-71
2023/07/19 08:19:19;;;;;;;5.10;2.70;;;;;;;31.24;33.53;100177.63;4893809;29;20220;-71
2023/07/19 08:21:45;;;;;;;6.15;2.90;;;;;;;31.20;33.52;100184.28;4890663;29;20224;-71
2023/07/19 08:24:11;;;;;;;5.68;2.75;;;;;;;31.07;34.03;100186.19;4891396;29;20220;-70
2023/07/19 08:26:39;;;;;;;4.82;3.20;;;;;;;30.72;35.13;100177.84;4891304;29;20310;-70
2023/07/19 08:29:06;;;;;;;8.80;2.92;;;;;;;30.92;34.44;100176.38;4889377;29;20196;-72
2023/07/19 08:31:32;;;;;;;4.00;2.70;;;;;;;30.59;33.99;100163.31;4885216;29;20234;-68
2023/07/19 08:33:58;;;;;;;4.07;2.53;;;;;;;30.24;33.79;100173.06;4884644;29;20212;-69
2023/07/19 08:36:25;;;;;;;4.53;2.83;;;;;;;29.88;35.00;100176.50;4895710;29;20259;-69
2023/07/19 08:38:51;;;;;;;3.85;2.75;;;;;;;30.03;36.32;100166.41;4888113;29;20196;-70
2023/07/19 08:41:21;;;;;;;9.07;2.80;;;;;;;29.69;36.87;100167.00;4883577;29;20236;-70
2023/07/19 08:43:49;;;;;;;4.43;2.83;;;;;;;29.52;37.61;100166.28;4885033;29;20205;-69
2023/07/19 08:46:16;;;;;;;5.82;3.30;;;;;;;29.25;38.55;100165.41;4878362;29;20210;-71
2023/07/19 08:48:47;;;;;;;5.05;3.00;;;;;;;29.33;37.77;100161.19;4889416;29;20204;-70
2023/07/19 08:51:14;;;;;;;6.32;3.30;;;;;;;29.54;38.47;100163.44;4894863;29;20294;-69
2023/07/19 08:53:41;;;;;;;7.40;3.28;;;;;;;29.74;38.19;100152.03;4888813;29;20227;-69
2023/07/19 08:56:09;;;;;;;4.78;3.20;;;;;;;30.28;37.26;100153.72;4889212;29;20243;-69
2023/07/19 08:58:39;;;;;;;6.25;3.38;;;;;;;30.68;36.53;100160.78;4880794;29;20210;-69
2023/07/19 09:01:07;;;;;;;5.07;3.03;;;;;;;30.67;36.36;100153.59;4894289;29;20227;-69
2023/07/19 09:03:34;;;;;;;7.10;3.45;;;;;;;31.38;35.25;100154.66;4904323;29;20207;-70
2023/07/19 09:06:01;;;;;;;12.13;3.22;;;;;;;31.98;34.32;100151.75;4894231;29;20210;-70
2023/07/19 09:08:38;;;;;;;6.28;3.00;;;;;;;32.20;34.55;100152.81;4891747;29;20728;-70
2023/07/19 09:11:07;;;;;;;4.97;2.83;;;;;;;31.93;34.31;100136.69;4889135;29;20322;-70
2023/07/19 09:13:36;;;;;;;5.75;2.85;;;;;;;31.71;34.51;100146.59;4891881;29;20211;-72
2023/07/19 09:16:05;;;;;;;4.63;2.80;;;;;;;31.53;34.84;100139.78;4887735;29;20215;-73
2023/07/19 09:18:36;;;;;;;6.93;2.90;;;;;;;31.89;34.64;100135.19;4885709;29;20200;-73
2023/07/19 09:21:06;;;;;;;4.65;2.60;;;;;;;31.96;34.44;100142.78;4894892;29;20334;-73
2023/07/19 09:23:37;;;;;;;3.83;2.53;;;;;;;32.26;32.73;100131.28;4903619;29;20668;-73
2023/07/19 09:26:05;;;;;;;7.85;3.08;;;;;;;31.90;32.17;100137.81;4906482;29;20232;-72
2023/07/19 09:28:34;;;;;;;5.03;2.60;;;;;;;31.23;33.25;100139.44;4897639;29;20205;-72
2023/07/19 09:31:05;;;;;;;5.40;2.38;;;;;;;31.61;33.37;100136.44;4894493;29;20228;-72
2023/07/19 09:33:34;;;;;;;7.35;2.88;;;;;;;31.65;32.34;100140.72;4896507;29;20246;-73
2023/07/19 09:36:01;;;;;;;5.05;2.50;;;;;;;31.43;33.76;100138.75;4893401;29;20201;-72
2023/07/19 09:38:27;;;;;;;6.95;2.25;;;;;;;30.99;33.38;100132.03;4899067;29;20247;-72
2023/07/19 09:40:54;;;;;;;6.97;2.38;;;;;;;29.97;35.47;100135.88;4895563;29;20232;-72
2023/07/19 09:43:21;;;;;;;3.35;2.20;;;;;;;30.19;34.11;100141.59;4891572;29;20220;-72
2023/07/19 09:45:49;;;;;;;5.40;2.40;;;;;;;30.52;33.94;100138.28;4895845;29;20280;-70
2023/07/19 09:48:17;;;;;;;4.72;2.70;;;;;;;30.67;34.10;100126.25;4897747;29;20208;-70
2023/07/19 09:50:46;;;;;;;5.05;2.72;;;;;;;31.14;32.69;100121.78;4897888;29;20219;-70
2023/07/19 09:53:13;;;;;;;4.75;2.70;;;;;;;30.90;33.11;100127.28;4897098;29;20300;-70
2023/07/19 09:55:40;;;;;;;5.63;2.33;;;;;;;30.81;32.93;100117.00;4893642;29;20665;-70
2023/07/19 09:58:11;;;;;;;5.75;2.30;;;;;;;30.93;33.10;100116.09;4893967;29;20201;-70
2023/07/19 10:00:38;;;;;;;7.80;2.15;;;;;;;30.88;31.86;100111.97;4899704;29;20231;-70
2023/07/19 10:03:06;;;;;;;5.03;2.33;;;;;;;30.62;32.47;100116.63;4890765;29;20273;-70
2023/07/19 10:05:34;;;;;;;3.10;2.20;;;;;;;30.75;32.30;100109.25;4898579;29;20217;-71
2023/07/19 10:08:10;;;;;;;4.63;2.15;;;;;;;30.07;33.04;100101.50;4898300;29;20255;-70
2023/07/19 10:10:41;;;;;;;3.83;2.28;;;;;;;30.57;33.26;100100.53;4895805;29;20224;-71
2023/07/19 10:13:08;;;;;;;5.13;2.80;;;;;;;30.35;32.65;100098.50;4896351;29;20209;-70
2023/07/19 10:15:36;;;;;;;8.63;3.63;;;;;;;30.70;33.37;100103.25;4894910;29;20733;-70
2023/07/19 10:18:11;;;;;;;8.43;2.38;;;;;;;31.01;33.21;100099.09;4892493;29;20573;-70
2023/07/19 10:20:37;;;;;;;4.47;2.70;;;;;;;31.04;31.84;100105.22;4890558;29;20227;-69
2023/07/19 10:23:06;;;;;;;6.68;3.60;;;;;;;30.93;32.47;100098.81;4895789;29;20232;-70
2023/07/19 10:25:38;;;;;;;2.72;1.90;;;;;;;30.39;31.88;100089.09;4892671;29;20226;-69
2023/07/19 10:28:07;;;;;;;4.72;2.47;;;;;;;29.93;31.95;100095.13;4902652;29;20287;-70
2023/07/19 10:30:46;;;;;;;2.78;2.20;;;;;;;29.91;32.82;100094.38;4942091;23;20282;-70
2023/07/19 10:33:21;;;;;;;4.90;2.17;;;;;;;30.23;33.21;100088.47;4948328;28;20245;-68
2023/07/19 10:35:53;;;;;;;3.85;2.20;;;;;;;30.63;33.21;100086.44;4946346;28;20206;-67
2023/07/19 10:38:24;;;;;;;5.55;2.30;;;;;;;31.49;31.75;100076.19;4950001;28;20198;-69
2023/07/19 10:41:01;;;;;;;4.97;2.40;;;;;;;32.13;30.31;100077.56;4948978;28;20219;-69
2023/07/19 10:43:30;;;;;;;6.40;2.40;;;;;;;32.01;29.67;100065.69;4951668;28;20233;-68
2023/07/19 10:46:14;;;;;;;7.80;4.05;;;;;;;32.29;28.68;100075.34;4946565;28;20202;-67
2023/07/19 10:48:41;;;;;;;3.55;2.20;;;;;;;32.21;29.06;100067.72;4947644;28;20214;-70
2023/07/19 10:51:09;;;;;;;3.00;2.30;;;;;;;32.39;28.82;100070.81;4946883;28;20226;-71
2023/07/19 10:53:43;;;;;;;3.88;2.55;;;;;;;32.43;29.30;100063.25;4950349;28;20222;-69
2023/07/19 10:56:09;;;;;;;3.55;2.20;;;;;;;32.60;29.15;100062.72;4948254;28;20202;-68
2023/07/19 10:58:36;;;;;;;3.97;2.70;;;;;;;32.39;29.01;100062.59;4948027;28;20198;-69
2023/07/19 11:01:04;;;;;;;6.65;3.05;;;;;;;32.18;29.41;100058.88;4948713;28;20214;-69
2023/07/19 11:03:30;;;;;;;5.03;2.97;;;;;;;32.39;30.59;100051.63;4951509;28;20225;-69
2023/07/19 11:05:57;;;;;;;2.40;1.73;;;;;;;32.37;29.08;100050.91;4947113;28;20642;-69
2023/07/19 11:08:28;;;;;;;3.40;1.77;;;;;;;31.94;29.24;100048.03;4946912;28;20237;-69
2023/07/19 11:10:56;;;;;;;5.38;2.40;;;;;;;31.44;30.00;100052.91;4950285;28;20257;-68
2023/07/19 11:13:25;;;;;;;7.70;2.17;;;;;;;31.43;30.50;100046.56;4948424;28;20203;-69
2023/07/19 11:15:57;;;;;;;5.00;2.35;;;;;;;31.07;31.85;100044.78;4950100;28;20198;-70
2023/07/19 11:18:24;;;;;;;3.97;2.25;;;;;;;30.40;32.27;100047.09;4950885;28;20233;-72
2023/07/19 11:20:51;;;;;;;4.60;2.22;;;;;;;30.34;32.07;100049.44;4947964;28;20218;-74
2023/07/19 11:23:18;;;;;;;4.88;2.40;;;;;;;30.06;33.61;100039.69;4951346;28;20239;-71
2023/07/19 11:25:46;;;;;;;4.22;2.00;;;;;;;30.15;33.25;100049.94;4947399;28;20202;-70